Flight Track Log - Related Links

Times and Time Zones

All times are in EDT time to prevent confusion due to time zone crossing. See the FFT108 flight status page for this flight to view local times or setup timezone preferences in your user account.

Time Position Orientation Groundspeed Altitude Reporting Facility
EDT Latitude Longitude Course Direction KTS MPH feet Rate Location/Type
Fri 09:18:03 PM 39.9333 -104.6833 37° Northeast 186 214 7,200  Level Denver TRACON
Fri 09:19:03 PM 39.9833 -104.6333 37° Northeast 255 293 8,500 1,850 Climbing Denver TRACON
Fri 09:20:03 PM 40.0500 -104.5833 30° Northeast 283 326 10,900 2,300 Climbing Denver TRACON
Fri 09:21:03 PM 40.1333 -104.5333 25° Northeast 323 372 13,100 2,667 Climbing Denver TRACON
Fri 09:22:18 PM 40.2297 -104.4642 29° Northeast 321 369 16,900 2,102 Climbing Denver Center
Fri 09:23:20 PM 40.3106 -104.4142 25° Northeast 325 374 17,900 1,403 Climbing Denver Center
Fri 09:24:22 PM 40.3969 -104.3531 28° Northeast 352 405 19,800 1,805 Climbing Denver Center
Fri 09:25:23 PM 40.4961 -104.2908 26° Northeast 369 425 21,600 1,659 Climbing Denver Center
Fri 09:26:25 PM 40.5872 -104.2267 28° Northeast 372 428 23,200 1,548 Climbing Denver Center
Fri 09:27:27 PM 40.6717 -104.1144 45° Northeast 401 461 24,800 1,452 Climbing Denver Center
Fri 09:28:29 PM 40.7453 -104.0233 43° Northeast 382 440 26,200 1,306 Climbing Denver Center
Fri 09:29:31 PM 40.8358 -103.9050 45° Northeast 403 464 27,500 1,317 Climbing Denver Center
Fri 09:30:32 PM 40.9153 -103.8022 44° Northeast 415 478 28,900 1,235 Climbing Denver Center
Fri 09:31:47 PM 41.0225 -103.6650 44° Northeast 420 483 30,300 1,095 Climbing Denver Center
Fri 09:32:49 PM 41.1008 -103.5592 45° Northeast 421 484 31,400 1,210 Climbing Denver Center
Fri 09:33:51 PM 41.1714 -103.4078 58° Northeast 428 493 32,800 1,317 Climbing Denver Center
Fri 09:34:52 PM 41.2303 -103.2803 58° Northeast 425 489 34,100 1,122 Climbing Denver Center
Fri 09:35:54 PM 41.2975 -103.1331 59° Northeast 419 482 35,100 968 Climbing Denver Center
Fri 09:36:56 PM 41.3536 -103.0072 59° Northeast 415 478 36,100 919 Climbing Denver Center
Fri 09:37:58 PM 41.4186 -102.8639 59° Northeast 408 470 37,000 435 Climbing Denver Center
Fri 09:39:00 PM 41.4747 -102.7394 59° Northeast 409 471 37,000  Level Denver Center
Fri 09:40:02 PM 41.5386 -102.5953 59° Northeast 407 468 37,000  Level Denver Center
Fri 09:41:04 PM 41.5978 -102.4622 59° Northeast 408 470 37,000  Level Denver Center
Fri 09:42:06 PM 41.6542 -102.3353 59° Northeast 412 474 37,000  Level Denver Center
Fri 09:43:08 PM 41.7183 -102.1897 59° Northeast 408 470 37,000  Level Denver Center
Fri 09:44:10 PM 41.7733 -102.0631 60° Northeast 409 471 37,000  Level Denver Center
Fri 09:45:12 PM 41.8283 -101.9378 59° Northeast 407 468 37,000  Level Denver Center
Fri 09:46:14 PM 41.8936 -101.7878 60° Northeast 412 474 37,000  Level Denver Center
Fri 09:47:16 PM 41.9486 -101.6600 60° Northeast 413 475 37,000  Level Denver Center
Fri 09:48:18 PM 42.0131 -101.5103 60° Northeast 414 476 37,000  Level Denver Center
Fri 09:49:19 PM 42.0675 -101.3808 60° Northeast 415 478 37,000  Level Denver Center
Fri 09:50:21 PM 42.1308 -101.2319 60° Northeast 411 473 37,000  Level Denver Center
Fri 09:51:23 PM 42.1856 -101.1039 60° Northeast 410 472 37,000  Level Denver Center
Fri 09:52:25 PM 42.2400 -100.9739 60° Northeast 414 476 37,000  Level Denver Center
Fri 09:53:27 PM 42.3047 -100.8217 60° Northeast 417 480 37,000  Level Denver Center
Fri 09:54:29 PM 42.3592 -100.6906 61° Northeast 418 481 37,000  Level Denver Center
Fri 09:55:31 PM 42.4214 -100.5397 61° Northeast 413 475 37,000  Level Denver Center
Fri 09:56:32 PM 42.4764 -100.4072 61° Northeast 419 482 37,000  Level Denver Center
Fri 09:57:34 PM 42.5394 -100.2556 61° Northeast 415 478 37,000  Level Denver Center
Fri 09:58:36 PM 42.5928 -100.1208 62° Northeast 420 483 37,000  Level Denver Center
Fri 09:59:38 PM 42.6522 -99.9778 60° Northeast 419 482 37,000 -48 Level Denver Center
Fri 10:00:40 PM 42.7111 -99.8331 61° Northeast 418 481 36,900  Descending Denver Center
Fri 10:01:42 PM 42.7681 -99.6953 61° Northeast 419 482 37,000 48 Climbing Denver Center
Fri 10:02:44 PM 42.8250 -99.5531 61° Northeast 427 491 37,000  Level Denver Center
Fri 10:03:45 PM 42.8808 -99.4106 62° Northeast 427 491 37,000  Level Denver Center
Fri 10:04:50 PM 42.9483 -99.2433 61° Northeast 429 494 37,000  Level Minneapolis Center
Fri 10:05:52 PM 43.0042 -99.0997 62° Northeast 427 491 37,000  Level Minneapolis Center
Fri 10:06:53 PM 43.0633 -98.9525 61° Northeast 426 490 37,000  Level Minneapolis Center
Fri 10:07:54 PM 43.1194 -98.8078 62° Northeast 429 494 37,000  Level Minneapolis Center
Fri 10:08:55 PM 43.1761 -98.6633 62° Northeast 432 497 37,000  Level Minneapolis Center
Fri 10:09:57 PM 43.2311 -98.5178 63° Northeast 431 496 37,000  Level Minneapolis Center
Fri 10:10:58 PM 43.2878 -98.3742 62° Northeast 430 495 37,000  Level Minneapolis Center
Fri 10:11:59 PM 43.3425 -98.2314 62° Northeast 426 490 37,000  Level Minneapolis Center
Fri 10:13:00 PM 43.3981 -98.0861 62° Northeast 428 493 37,000  Level Minneapolis Center
Fri 10:14:01 PM 43.4647 -97.9122 62° Northeast 430 495 37,000  Level Minneapolis Center
Fri 10:15:03 PM 43.5203 -97.7650 62° Northeast 433 498 37,000  Level Minneapolis Center
Fri 10:16:04 PM 43.5753 -97.6181 63° Northeast 434 499 37,000  Level Minneapolis Center
Fri 10:17:05 PM 43.6306 -97.4703 63° Northeast 434 499 37,000  Level Minneapolis Center
Fri 10:18:06 PM 43.6853 -97.3228 63° Northeast 435 501 37,000  Level Minneapolis Center
Fri 10:19:19 PM 43.7517 -97.1425 63° Northeast 438 504 37,000  Level Minneapolis Center
Fri 10:20:20 PM 43.8072 -96.9911 63° Northeast 442 509 37,000  Level Minneapolis Center
Fri 10:21:21 PM 43.8631 -96.8392 63° Northeast 444 511 37,000  Level Minneapolis Center
Fri 10:22:22 PM 43.9186 -96.6867 63° Northeast 446 513 37,000  Level Minneapolis Center
Fri 10:23:24 PM 43.9736 -96.5331 64° Northeast 446 513 37,000  Level Minneapolis Center
Fri 10:24:25 PM 44.0397 -96.3481 64° Northeast 448 516 37,000  Level Minneapolis Center
Fri 10:25:26 PM 44.0947 -96.1950 63° Northeast 452 520 37,000 -1,279 Level Minneapolis Center
Fri 10:26:27 PM 44.1494 -96.0456 63° Northeast 451 519 34,400 -2,656 Descending Minneapolis Center
Fri 10:27:28 PM 44.2053 -95.8858 64° Northeast 463 533 31,600 -2,194 Descending Minneapolis Center
Fri 10:28:41 PM 44.2611 -95.7281 64° Northeast 460 529 29,500 -2,015 Descending Minneapolis Center
Fri 10:29:42 PM 44.3244 -95.5428 64° Northeast 444 511 27,100 -2,361 Descending Minneapolis Center
Fri 10:30:43 PM 44.3856 -95.3642 64° Northeast 430 495 24,700 -2,098 Descending Minneapolis Center
Fri 10:31:45 PM 44.4356 -95.2178 64° Northeast 421 484 22,800 -1,854 Descending Minneapolis Center
Fri 10:32:46 PM 44.4822 -95.0708 66° East 416 479 20,900 -1,770 Descending Minneapolis Center
Fri 10:33:47 PM 44.5169 -94.9214 72° East 407 468 19,200 -1,623 Descending Minneapolis Center
Fri 10:34:48 PM 44.5511 -94.7761 72° East 400 460 17,600 -1,623 Descending Minneapolis Center
Fri 10:35:49 PM 44.5856 -94.6269 72° East 387 445 15,900 -1,574 Descending Minneapolis Center
Fri 10:36:50 PM 44.6183 -94.4878 72° East 379 436 14,400 -1,426 Descending Minneapolis Center
Fri 10:37:51 PM 44.6489 -94.3533 72° East 362 417 13,000 -1,426 Descending Minneapolis Center
Fri 10:38:52 PM 44.6786 -94.2219 72° East 354 407 11,500 -976 Descending Minneapolis Center
Fri 10:39:54 PM 44.7067 -94.0989 72° East 332 382 11,000 -537 Descending Minneapolis Center
Fri 10:40:55 PM 44.7350 -93.9850 71° East 312 359 10,400 -1,279 Descending Minneapolis Center
Fri 10:41:56 PM 44.7717 -93.8806 64° Northeast 298 343 8,400 -1,623 Descending Minneapolis Center
Fri 10:42:57 PM 44.8075 -93.7756 64° Northeast 298 343 7,100 -689 Descending Minneapolis Center
Fri 10:43:58 PM 44.8425 -93.6711 65° Northeast 294 338 7,000 -1,033 Descending Minneapolis Center
Fri 10:44:59 PM 44.8769 -93.5708 64° Northeast 283 326 5,000 -1,623 Descending Minneapolis Center
Fri 10:46:00 PM 44.9144 -93.4594 65° Northeast 258 297 3,700 -927 Descending Minneapolis Center
Fri 10:47:02 PM 44.9400 -93.3836 65° Northeast 215 247 3,100 -732 Descending Minneapolis Center
Fri 10:48:03 PM 44.9236 -93.3167 109° East 187 215 2,200 -836 Descending Minneapolis Center
Fri 10:49:04 PM 44.9008 -93.2650 122° Southeast 156 180 1,400 -787 Descending Minneapolis Center
Fri 10:51:00 PM 44.8820 -93.2218 90° East  Level Estimated

Login

Don't have an account? Register now (free) for customized features, flight alerts, and more!